createdAt,value
2017-04-19T00:00:49.550Z,78.70
2017-04-19T00:01:49.036Z,78.50
2017-04-19T00:02:48.469Z,79.20
2017-04-19T00:03:47.887Z,79.10
2017-04-19T00:04:47.296Z,79.30
2017-04-19T00:05:47.307Z,79.00
2017-04-19T00:06:46.713Z,79.60
2017-04-19T00:07:46.147Z,80.30
2017-04-19T00:08:45.587Z,79.60
2017-04-19T00:09:44.987Z,79.30
2017-04-19T00:10:44.383Z,79.40
2017-04-19T00:11:43.111Z,79.40
2017-04-19T00:12:41.802Z,80.00
2017-04-19T00:13:41.214Z,80.10
2017-04-19T00:14:40.653Z,80.20
2017-04-19T00:15:40.125Z,79.90
2017-04-19T00:16:40.010Z,78.80
2017-04-19T00:17:39.745Z,78.70
2017-04-19T00:18:39.130Z,79.80
2017-04-19T00:19:38.550Z,80.10
2017-04-19T00:20:37.946Z,80.30
2017-04-19T00:21:37.407Z,79.60
2017-04-19T00:22:36.857Z,80.60
2017-04-19T00:23:36.263Z,80.40
2017-04-19T00:24:35.697Z,80.60
2017-04-19T00:25:35.110Z,80.30
2017-04-19T00:26:34.578Z,80.60
2017-04-19T00:27:34.714Z,79.90
2017-04-19T00:28:34.163Z,80.40
2017-04-19T00:29:33.602Z,80.70
2017-04-19T00:30:33.005Z,80.60
2017-04-19T00:31:32.389Z,80.30
2017-04-19T00:32:31.781Z,80.20
2017-04-19T00:33:30.945Z,80.20
2017-04-19T00:34:30.354Z,79.20
2017-04-19T00:35:29.769Z,79.30
2017-04-19T00:36:29.178Z,78.80
2017-04-19T00:37:28.578Z,78.90
2017-04-19T00:38:27.997Z,79.00
2017-04-19T00:39:27.414Z,79.20
2017-04-19T00:40:26.843Z,79.00
2017-04-19T00:41:26.239Z,79.20
2017-04-19T00:42:25.009Z,79.20
2017-04-19T00:43:24.401Z,78.60
2017-04-19T00:44:23.814Z,78.80
2017-04-19T00:45:23.201Z,79.00
2017-04-19T00:46:22.578Z,79.10
2017-04-19T00:47:21.965Z,79.00
2017-04-19T00:48:21.357Z,78.90
2017-04-19T00:49:20.810Z,79.30
2017-04-19T00:50:20.250Z,78.80
2017-04-19T00:51:19.643Z,78.90
2017-04-19T00:52:19.082Z,78.80
2017-04-19T00:53:18.469Z,79.20
2017-04-19T00:54:17.161Z,79.10
2017-04-19T00:55:16.396Z,79.40
2017-04-19T00:56:15.608Z,79.40
2017-04-19T00:57:14.845Z,79.20
2017-04-19T00:58:14.420Z,79.40
2017-04-19T00:59:13.660Z,79.90
2017-04-19T01:00:12.907Z,79.80
2017-04-19T01:01:12.149Z,79.30
2017-04-19T01:02:11.381Z,79.20
2017-04-19T01:03:10.613Z,79.20
2017-04-19T01:04:09.894Z,79.30
2017-04-19T01:05:09.164Z,80.00
2017-04-19T01:06:08.391Z,80.90
2017-04-19T01:07:07.612Z,80.80
2017-04-19T01:08:06.854Z,80.20
2017-04-19T01:09:06.719Z,80.30
2017-04-19T01:10:05.979Z,81.00
2017-04-19T01:11:05.274Z,80.90
2017-04-19T01:12:04.496Z,81.50
2017-04-19T01:13:03.717Z,81.90
2017-04-19T01:14:02.943Z,81.90
2017-04-19T01:15:01.412Z,81.90
2017-04-19T01:16:00.680Z,81.60
2017-04-19T01:16:59.900Z,81.70
2017-04-19T01:17:59.170Z,81.50
2017-04-19T01:18:58.389Z,82.50
2017-04-19T01:19:57.713Z,82.90
2017-04-19T01:20:56.952Z,83.10
2017-04-19T01:21:56.171Z,83.00
2017-04-19T01:22:55.392Z,83.30
2017-04-19T01:23:54.632Z,83.10
2017-04-19T01:24:53.892Z,83.00
2017-04-19T01:25:53.109Z,83.70
2017-04-19T01:26:52.348Z,83.70
2017-04-19T01:27:51.564Z,84.00
2017-04-19T01:28:50.771Z,83.60
2017-04-19T01:29:49.271Z,83.50
2017-04-19T01:30:48.507Z,84.80
2017-04-19T01:31:47.764Z,84.80
2017-04-19T01:32:47.018Z,84.30
2017-04-19T01:33:46.249Z,84.40
2017-04-19T01:34:45.501Z,84.60
2017-04-19T01:35:45.004Z,84.50
2017-04-19T01:36:44.250Z,85.10
2017-04-19T01:37:43.468Z,85.30
2017-04-19T01:38:42.700Z,85.40
2017-04-19T01:39:42.236Z,85.30
2017-04-19T01:40:41.499Z,85.20
2017-04-19T01:41:41.484Z,85.30
2017-04-19T01:42:40.730Z,85.30
2017-04-19T01:43:40.720Z,85.10
2017-04-19T01:44:39.959Z,84.90
2017-04-19T01:45:39.196Z,84.80
2017-04-19T01:46:38.416Z,84.80
2017-04-19T01:47:36.873Z,84.80
2017-04-19T01:48:36.083Z,85.20
2017-04-19T01:49:35.336Z,85.60
2017-04-19T01:50:34.697Z,85.50
2017-04-19T01:51:33.925Z,85.60
2017-04-19T01:52:33.159Z,85.30
2017-04-19T01:53:32.380Z,85.10
2017-04-19T01:54:31.620Z,85.10
2017-04-19T01:55:30.862Z,84.80
2017-04-19T01:56:30.142Z,84.50
2017-04-19T01:57:28.601Z,84.50
2017-04-19T01:58:27.832Z,84.40
2017-04-19T01:59:27.084Z,84.40
2017-04-19T02:00:26.628Z,84.60
2017-04-19T02:01:25.856Z,84.80
2017-04-19T02:02:25.082Z,85.00
2017-04-19T02:03:24.376Z,84.40
2017-04-19T02:04:23.603Z,84.50
2017-04-19T02:05:23.240Z,84.40
2017-04-19T02:06:27.913Z,84.40
2017-04-19T02:07:32.412Z,83.90
2017-04-19T02:08:31.728Z,84.20
2017-04-19T02:09:30.961Z,84.00
2017-04-19T02:10:30.312Z,83.80
2017-04-19T02:11:29.532Z,83.40
2017-04-19T02:12:28.761Z,83.90
2017-04-19T02:13:28.074Z,83.40
2017-04-19T02:14:27.291Z,83.70
2017-04-19T02:15:26.936Z,83.10
2017-04-19T02:16:26.170Z,83.40
2017-04-19T02:17:26.815Z,83.70
2017-04-19T02:18:26.344Z,83.50
2017-04-19T02:19:25.571Z,83.10
2017-04-19T02:20:25.037Z,83.80
2017-04-19T02:21:24.004Z,83.80
2017-04-19T02:22:24.012Z,82.60
2017-04-19T02:23:22.447Z,82.50
2017-04-19T02:24:23.003Z,82.60
2017-04-19T02:25:23.386Z,82.20
2017-04-19T02:26:22.637Z,82.60
2017-04-19T02:27:21.869Z,81.60
2017-04-19T02:28:21.088Z,82.10
2017-04-19T02:29:20.316Z,81.80
2017-04-19T02:30:19.614Z,82.20
2017-04-19T02:31:18.865Z,82.80
2017-04-19T02:32:18.088Z,81.70
2017-04-19T02:33:17.325Z,82.00
2017-04-19T02:34:16.557Z,81.30
2017-04-19T02:35:15.789Z,81.20
2017-04-19T02:36:15.795Z,81.20
2017-04-19T02:37:16.488Z,81.50
2017-04-19T02:38:15.701Z,81.10
2017-04-19T02:39:14.912Z,81.20
2017-04-19T02:40:15.422Z,81.40
2017-04-19T02:41:14.821Z,81.80
2017-04-19T02:42:14.093Z,81.60
2017-04-19T02:43:13.557Z,81.00
2017-04-19T02:44:12.775Z,80.70
2017-04-19T02:45:11.992Z,80.80
2017-04-19T02:46:11.443Z,80.80
2017-04-19T02:47:10.656Z,80.50
2017-04-19T02:48:09.880Z,80.10
2017-04-19T02:49:09.113Z,79.40
2017-04-19T02:50:08.348Z,79.30
2017-04-19T02:51:08.624Z,79.00
2017-04-19T02:52:07.829Z,79.30
2017-04-19T02:53:07.112Z,79.20
2017-04-19T02:54:06.359Z,79.40
2017-04-19T02:55:05.612Z,78.80
2017-04-19T02:56:04.836Z,78.30
2017-04-19T02:57:04.083Z,78.70
2017-04-19T02:58:03.293Z,79.00
2017-04-19T02:59:02.519Z,79.60
2017-04-19T03:00:01.734Z,79.30
2017-04-19T03:01:00.300Z,79.30
2017-04-19T03:01:59.614Z,78.60
2017-04-19T03:02:59.684Z,78.80
2017-04-19T03:03:59.051Z,78.80
2017-04-19T03:04:58.474Z,79.10
2017-04-19T03:05:56.956Z,79.20
2017-04-19T03:06:56.441Z,79.30
2017-04-19T03:07:55.664Z,78.90
2017-04-19T03:08:54.872Z,78.70
2017-04-19T03:09:54.217Z,78.70
2017-04-19T03:10:52.668Z,78.60
2017-04-19T03:11:51.905Z,78.70
2017-04-19T03:12:51.116Z,79.00
2017-04-19T03:13:51.086Z,79.00
2017-04-19T03:14:50.308Z,79.10
2017-04-19T03:15:49.512Z,79.30
2017-04-19T03:16:48.748Z,79.30
2017-04-19T03:17:48.097Z,78.90
2017-04-19T03:18:47.317Z,79.50
2017-04-19T03:19:46.540Z,79.90
2017-04-19T03:20:45.764Z,80.40
2017-04-19T03:21:45.055Z,80.40
2017-04-19T03:22:44.281Z,79.50
2017-04-19T03:23:43.503Z,80.20
2017-04-19T03:24:42.737Z,79.30
2017-04-19T03:25:41.213Z,79.30
2017-04-19T03:26:40.796Z,78.40
2017-04-19T03:27:40.020Z,78.20
2017-04-19T03:28:38.473Z,78.20
2017-04-19T03:29:37.698Z,78.40
2017-04-19T03:30:36.895Z,78.60
2017-04-19T03:31:36.164Z,78.90
2017-04-19T03:32:35.403Z,78.80
2017-04-19T03:33:34.045Z,78.80
2017-04-19T03:34:33.341Z,79.40
2017-04-19T03:35:32.555Z,79.20
2017-04-19T03:36:31.797Z,78.60
2017-04-19T03:37:30.340Z,78.60
2017-04-19T03:38:29.567Z,78.30
2017-04-19T03:39:29.124Z,78.50
2017-04-19T03:40:28.332Z,78.60
2017-04-19T03:41:27.561Z,78.50
2017-04-19T03:42:26.852Z,79.20
2017-04-19T03:43:26.068Z,79.60
2017-04-19T03:44:25.274Z,79.80
2017-04-19T03:45:24.495Z,79.40
2017-04-19T03:46:23.692Z,79.20
2017-04-19T03:47:22.939Z,79.20
2017-04-19T03:48:22.181Z,79.40
2017-04-19T03:49:21.387Z,79.60
2017-04-19T03:50:20.592Z,79.30
2017-04-19T03:51:19.804Z,79.20
2017-04-19T03:52:19.053Z,78.60
2017-04-19T03:53:18.270Z,79.20
2017-04-19T03:54:17.508Z,78.50
2017-04-19T03:55:16.725Z,78.20
2017-04-19T03:56:16.005Z,78.30
2017-04-19T03:57:15.237Z,79.50
2017-04-19T03:58:14.455Z,79.00
2017-04-19T03:59:13.693Z,79.20
2017-04-19T04:00:12.922Z,79.30
2017-04-19T04:01:12.136Z,79.30
2017-04-19T04:02:11.632Z,79.70
2017-04-19T04:03:10.848Z,79.60
2017-04-19T04:04:10.139Z,79.60
2017-04-19T04:05:08.585Z,79.60
2017-04-19T04:06:07.819Z,80.10
2017-04-19T04:07:06.381Z,80.10
2017-04-19T04:08:05.621Z,79.40
2017-04-19T04:09:05.693Z,78.80
2017-04-19T04:10:04.933Z,79.20
2017-04-19T04:11:04.194Z,79.40
2017-04-19T04:12:03.409Z,79.30
2017-04-19T04:13:02.668Z,79.80
2017-04-19T04:14:01.913Z,79.30
2017-04-19T04:15:00.439Z,79.30
2017-04-19T04:15:59.674Z,79.60
2017-04-19T04:16:58.140Z,79.70
2017-04-19T04:17:57.401Z,79.60
2017-04-19T04:18:56.621Z,79.60
2017-04-19T04:19:55.848Z,79.30
2017-04-19T04:20:55.060Z,78.80
2017-04-19T04:21:54.279Z,79.20
2017-04-19T04:22:53.520Z,79.30
2017-04-19T04:23:52.732Z,80.40
2017-04-19T04:24:51.958Z,80.00
2017-04-19T04:25:51.170Z,79.40
2017-04-19T04:26:51.128Z,79.50
2017-04-19T04:27:50.431Z,78.70
2017-04-19T04:28:49.694Z,78.40
2017-04-19T04:29:48.933Z,78.10
2017-04-19T04:30:48.161Z,78.00
2017-04-19T04:31:47.719Z,76.80
2017-04-19T04:32:46.963Z,77.20
2017-04-19T04:33:46.184Z,77.80
2017-04-19T04:34:45.408Z,77.00
2017-04-19T04:35:44.616Z,77.20
2017-04-19T04:36:43.849Z,77.40
2017-04-19T04:37:43.136Z,77.20
2017-04-19T04:38:42.372Z,77.20
2017-04-19T04:39:41.604Z,76.50
2017-04-19T04:40:40.837Z,76.30
2017-04-19T04:41:40.053Z,76.80
2017-04-19T04:42:39.293Z,76.70
2017-04-19T04:43:38.760Z,76.70
2017-04-19T04:44:38.241Z,76.20
2017-04-19T04:45:37.491Z,76.30
2017-04-19T04:46:36.711Z,75.40
2017-04-19T04:47:35.937Z,75.10
2017-04-19T04:48:35.257Z,73.10
2017-04-19T04:49:34.500Z,74.20
2017-04-19T04:50:33.793Z,73.60
2017-04-19T04:51:33.018Z,73.30
2017-04-19T04:52:32.273Z,73.20
2017-04-19T04:53:31.516Z,73.60
2017-04-19T04:54:30.760Z,73.90
2017-04-19T04:55:29.989Z,74.80
2017-04-19T04:56:29.207Z,73.90
2017-04-19T04:57:28.416Z,72.20
2017-04-19T04:58:27.668Z,72.60
2017-04-19T04:59:26.915Z,72.10
2017-04-19T05:00:26.129Z,72.20
2017-04-19T05:01:25.437Z,71.80
2017-04-19T05:02:24.682Z,71.70
2017-04-19T05:03:23.932Z,71.50
2017-04-19T05:04:23.246Z,71.80
2017-04-19T05:05:22.503Z,72.30
2017-04-19T05:06:21.726Z,71.20
2017-04-19T05:07:20.944Z,71.10
2017-04-19T05:08:20.219Z,72.00
2017-04-19T05:09:19.465Z,70.00
2017-04-19T05:10:18.683Z,70.40
2017-04-19T05:11:17.137Z,70.40
2017-04-19T05:12:17.096Z,71.10
2017-04-19T05:13:17.057Z,70.10
2017-04-19T05:14:16.300Z,69.90
2017-04-19T05:15:15.509Z,70.20
2017-04-19T05:16:15.750Z,69.80
2017-04-19T05:17:14.968Z,69.90
2017-04-19T05:18:14.328Z,69.30
2017-04-19T05:19:13.579Z,69.10
2017-04-19T05:20:12.802Z,69.50
2017-04-19T05:21:12.029Z,68.30
2017-04-19T05:22:11.279Z,68.30
2017-04-19T05:23:09.788Z,68.30
2017-04-19T05:24:09.033Z,66.50
2017-04-19T05:25:08.336Z,66.20
2017-04-19T05:26:07.734Z,67.40
2017-04-19T05:27:06.968Z,68.30
2017-04-19T05:28:05.473Z,68.40
2017-04-19T05:29:04.744Z,67.90
2017-04-19T05:30:04.028Z,66.40
2017-04-19T05:31:03.241Z,66.30
2017-04-19T05:32:02.480Z,65.20
2017-04-19T05:33:01.707Z,65.80
2017-04-19T05:34:00.965Z,66.40
2017-04-19T05:35:00.181Z,66.80
2017-04-19T05:35:59.396Z,66.70
2017-04-19T05:36:58.616Z,65.10
2017-04-19T05:37:57.848Z,65.40
2017-04-19T05:38:57.087Z,66.20
2017-04-19T05:39:56.312Z,65.50
2017-04-19T05:40:55.541Z,65.10
2017-04-19T05:41:54.833Z,65.30
2017-04-19T05:42:54.129Z,62.90
2017-04-19T05:43:53.409Z,62.70
2017-04-19T05:44:52.668Z,63.50
2017-04-19T05:45:51.922Z,63.60
2017-04-19T05:46:51.155Z,63.40
2017-04-19T05:47:50.377Z,63.30
2017-04-19T05:48:49.612Z,61.70
2017-04-19T05:49:48.948Z,64.10
2017-04-19T05:50:48.187Z,63.20
2017-04-19T05:51:47.453Z,64.40
2017-04-19T05:52:46.684Z,63.90
2017-04-19T05:53:45.895Z,62.60
2017-04-19T05:54:44.385Z,62.50
2017-04-19T05:55:43.604Z,62.20
2017-04-19T05:56:42.820Z,62.80
2017-04-19T05:57:42.060Z,62.40
2017-04-19T05:58:42.035Z,62.90
2017-04-19T05:59:41.314Z,60.60
2017-04-19T06:00:40.534Z,61.20
2017-04-19T06:01:39.756Z,59.40
2017-04-19T06:02:38.980Z,60.30
2017-04-19T06:03:38.220Z,56.20
2017-04-19T06:04:37.464Z,57.30
2017-04-19T06:05:36.696Z,57.60
2017-04-19T06:06:35.965Z,58.00
2017-04-19T06:07:35.192Z,59.40
2017-04-19T06:08:35.156Z,57.30
2017-04-19T06:09:34.393Z,56.50
2017-04-19T06:10:33.608Z,57.70
2017-04-19T06:11:32.820Z,58.50
2017-04-19T06:12:32.056Z,57.70
2017-04-19T06:13:30.525Z,57.60
2017-04-19T06:14:30.117Z,55.80
2017-04-19T06:15:29.336Z,54.80
2017-04-19T06:16:28.532Z,54.10
2017-04-19T06:17:27.761Z,52.30
2017-04-19T06:18:26.988Z,51.00
2017-04-19T06:19:26.292Z,51.30
2017-04-19T06:20:25.595Z,50.50
2017-04-19T06:21:24.811Z,48.30
2017-04-19T06:22:24.041Z,46.50
2017-04-19T06:23:24.388Z,44.70
2017-04-19T06:24:23.820Z,42.20
2017-04-19T06:25:23.433Z,42.80
2017-04-19T06:26:22.664Z,44.70
2017-04-19T06:27:22.391Z,46.20
2017-04-19T06:28:21.872Z,41.30
2017-04-19T06:29:21.705Z,41.80
2017-04-19T06:30:21.112Z,39.90
2017-04-19T06:31:20.348Z,40.30
2017-04-19T06:32:19.910Z,40.90
2017-04-19T06:33:19.455Z,40.90
2017-04-19T06:34:18.841Z,40.00
2017-04-19T06:35:18.237Z,40.00
2017-04-19T06:36:17.637Z,37.50
2017-04-19T06:37:17.332Z,37.60
2017-04-19T06:38:16.587Z,37.20
2017-04-19T06:39:16.200Z,36.40
2017-04-19T06:40:15.842Z,35.80
2017-04-19T06:41:15.177Z,35.40
2017-04-19T06:42:14.908Z,36.30
2017-04-19T06:43:14.444Z,35.30
2017-04-19T06:44:13.890Z,34.20
2017-04-19T06:45:13.429Z,34.80
2017-04-19T06:46:12.651Z,34.70
2017-04-19T06:47:12.145Z,33.60
2017-04-19T06:48:11.983Z,34.60
2017-04-19T06:49:12.021Z,34.90
2017-04-19T06:50:12.113Z,34.40
2017-04-19T06:51:11.625Z,33.60
2017-04-19T06:52:11.424Z,33.40
2017-04-19T06:53:11.084Z,32.70
2017-04-19T06:54:10.794Z,33.40
2017-04-19T06:55:10.218Z,34.90
2017-04-19T06:56:09.623Z,34.80
2017-04-19T06:57:09.174Z,33.40
2017-04-19T06:58:08.841Z,32.50
2017-04-19T06:59:08.227Z,31.70
2017-04-19T07:00:07.807Z,32.00
2017-04-19T07:01:07.432Z,33.40
2017-04-19T07:02:06.820Z,33.10
2017-04-19T07:03:08.016Z,35.00
2017-04-19T07:04:08.100Z,34.50
2017-04-19T07:05:07.185Z,34.50
2017-04-19T07:06:07.181Z,34.60
2017-04-19T07:07:06.701Z,34.30
2017-04-19T07:08:06.290Z,33.50
2017-04-19T07:09:06.088Z,32.20
2017-04-19T07:10:05.779Z,30.10
2017-04-19T07:11:05.156Z,29.20
2017-04-19T07:12:04.836Z,28.90
2017-04-19T07:13:04.529Z,29.00
2017-04-19T07:14:03.828Z,29.70
2017-04-19T07:15:03.295Z,31.40
2017-04-19T07:16:03.071Z,30.50
2017-04-19T07:17:02.584Z,30.50
2017-04-19T07:18:01.611Z,30.50
2017-04-19T07:19:01.113Z,32.50
2017-04-19T07:20:00.740Z,33.00
2017-04-19T07:20:59.988Z,32.10
2017-04-19T07:21:59.596Z,32.30
2017-04-19T07:22:59.128Z,32.60
2017-04-19T07:23:58.681Z,32.60
2017-04-19T07:24:58.062Z,31.40
2017-04-19T07:25:57.466Z,32.30
2017-04-19T07:26:57.206Z,31.60
2017-04-19T07:27:56.441Z,31.80
2017-04-19T07:28:56.041Z,31.40
2017-04-19T07:29:55.672Z,31.30
2017-04-19T07:30:55.117Z,32.00
2017-04-19T07:31:54.635Z,32.60
2017-04-19T07:32:54.327Z,32.80
2017-04-19T07:33:53.990Z,31.80
2017-04-19T07:34:53.657Z,31.90
2017-04-19T07:35:52.725Z,31.90
2017-04-19T07:36:52.400Z,31.70
2017-04-19T07:37:52.194Z,31.30
2017-04-19T07:38:52.087Z,31.60
2017-04-19T07:39:51.581Z,33.10
2017-04-19T07:40:50.411Z,33.20
2017-04-19T07:41:50.199Z,34.80
2017-04-19T07:42:49.481Z,35.40
2017-04-19T07:43:49.104Z,36.50
2017-04-19T07:44:49.009Z,37.90
2017-04-19T07:45:48.701Z,39.40
2017-04-19T07:46:48.406Z,38.00
2017-04-19T07:47:47.872Z,37.90
2017-04-19T07:48:48.234Z,37.60
2017-04-19T07:49:47.669Z,38.80
2017-04-19T07:50:47.269Z,38.20
2017-04-19T07:51:46.109Z,38.20
2017-04-19T07:52:45.644Z,37.70
2017-04-19T07:53:44.880Z,38.90
2017-04-19T07:54:44.480Z,39.00
2017-04-19T07:55:44.410Z,37.90
2017-04-19T07:56:43.369Z,37.80
2017-04-19T07:57:42.641Z,38.50
2017-04-19T07:58:42.073Z,37.40
2017-04-19T07:59:41.584Z,36.60
2017-04-19T08:00:40.848Z,37.80
2017-04-19T08:01:40.124Z,39.20
2017-04-19T08:02:39.352Z,37.80
2017-04-19T08:03:38.583Z,37.40
2017-04-19T08:04:38.249Z,37.40
2017-04-19T08:05:37.472Z,37.20
2017-04-19T08:06:36.716Z,39.10
2017-04-19T08:07:36.039Z,38.60
2017-04-19T08:08:35.695Z,37.30
2017-04-19T08:09:34.912Z,39.40
2017-04-19T08:10:34.232Z,38.60
2017-04-19T08:11:33.478Z,39.00
2017-04-19T08:12:33.463Z,38.00
2017-04-19T08:13:32.715Z,40.90
2017-04-19T08:14:32.048Z,41.60
2017-04-19T08:15:30.512Z,40.80
2017-04-19T08:16:30.020Z,38.70
2017-04-19T08:17:29.244Z,36.90
2017-04-19T08:18:28.742Z,35.90
2017-04-19T08:19:28.540Z,34.10
2017-04-19T08:20:29.525Z,35.00
2017-04-19T08:21:28.905Z,36.30
2017-04-19T08:22:28.175Z,35.90
2017-04-19T08:23:27.380Z,35.70
2017-04-19T08:24:26.603Z,34.30
2017-04-19T08:25:25.893Z,35.90
2017-04-19T08:26:25.240Z,34.60
2017-04-19T08:27:24.483Z,33.00
2017-04-19T08:28:23.705Z,31.20
2017-04-19T08:29:22.925Z,31.20
2017-04-19T08:30:22.149Z,31.30
2017-04-19T08:31:21.375Z,32.20
2017-04-19T08:32:20.701Z,31.30
2017-04-19T08:33:19.912Z,32.60
2017-04-19T08:34:19.186Z,30.90
2017-04-19T08:35:18.405Z,31.30
2017-04-19T08:36:17.670Z,31.20
2017-04-19T08:37:16.920Z,29.80
2017-04-19T08:38:16.144Z,29.90
2017-04-19T08:39:15.364Z,30.50
2017-04-19T08:40:14.575Z,30.70
2017-04-19T08:41:13.784Z,30.80
2017-04-19T08:42:13.020Z,31.90
2017-04-19T08:43:12.344Z,33.50
2017-04-19T08:44:11.564Z,33.80
2017-04-19T08:45:10.796Z,34.50
2017-04-19T08:46:10.019Z,35.20
2017-04-19T08:47:09.283Z,35.80
2017-04-19T08:48:08.504Z,35.50
2017-04-19T08:49:07.752Z,37.10
2017-04-19T08:50:06.989Z,35.70
2017-04-19T08:51:06.233Z,34.40
2017-04-19T08:52:05.766Z,32.10
2017-04-19T08:53:05.025Z,29.60
2017-04-19T08:54:04.301Z,29.30
2017-04-19T08:55:03.544Z,28.20
2017-04-19T08:56:02.765Z,28.60
2017-04-19T08:57:02.040Z,29.50
2017-04-19T08:58:00.536Z,29.50
2017-04-19T08:58:59.790Z,28.80
2017-04-19T08:59:59.017Z,27.90
2017-04-19T09:00:58.244Z,28.30
2017-04-19T09:01:57.546Z,28.40
2017-04-19T09:02:56.780Z,29.60
2017-04-19T09:03:55.996Z,29.20
2017-04-19T09:04:55.216Z,29.80
2017-04-19T09:05:54.444Z,30.80
2017-04-19T09:06:53.672Z,31.60
2017-04-19T09:07:52.914Z,33.20
2017-04-19T09:08:52.129Z,33.40
2017-04-19T09:09:51.346Z,34.30
2017-04-19T09:10:50.572Z,35.90
2017-04-19T09:11:49.816Z,35.40
2017-04-19T09:12:49.072Z,35.60
2017-04-19T09:13:48.284Z,35.90
2017-04-19T09:14:47.504Z,36.30
2017-04-19T09:15:46.740Z,32.90
2017-04-19T09:16:45.992Z,34.10
2017-04-19T09:17:45.234Z,34.00
2017-04-19T09:18:44.459Z,34.90
2017-04-19T09:19:43.698Z,33.70
2017-04-19T09:20:42.917Z,33.70
2017-04-19T09:21:42.160Z,34.00
2017-04-19T09:22:41.408Z,34.30
2017-04-19T09:23:40.728Z,34.80
2017-04-19T09:24:39.948Z,34.10
2017-04-19T09:25:39.169Z,33.20
2017-04-19T09:26:38.376Z,35.40
2017-04-19T09:27:37.636Z,34.20
2017-04-19T09:28:36.867Z,36.90
2017-04-19T09:29:36.084Z,37.20
2017-04-19T09:30:35.303Z,36.10
2017-04-19T09:31:34.512Z,36.40
2017-04-19T09:32:33.732Z,37.70
2017-04-19T09:33:32.979Z,38.30
2017-04-19T09:34:32.188Z,38.10
2017-04-19T09:35:31.410Z,37.90
2017-04-19T09:36:30.624Z,36.50
2017-04-19T09:37:29.845Z,36.60
2017-04-19T09:38:29.113Z,36.60
2017-04-19T09:39:28.342Z,35.00
2017-04-19T09:40:27.552Z,35.20
2017-04-19T09:41:26.796Z,34.60
2017-04-19T09:42:26.025Z,36.50
2017-04-19T09:43:25.320Z,36.20
2017-04-19T09:44:24.532Z,36.00
2017-04-19T09:45:23.754Z,36.20
2017-04-19T09:46:22.968Z,34.90
2017-04-19T09:47:22.228Z,35.30
2017-04-19T09:48:21.511Z,35.10
2017-04-19T09:49:20.740Z,37.70
2017-04-19T09:50:19.984Z,37.50
2017-04-19T09:51:19.191Z,36.70
2017-04-19T09:52:18.419Z,37.00
2017-04-19T09:53:17.697Z,37.90
2017-04-19T09:54:16.920Z,39.10
2017-04-19T09:55:16.148Z,37.10
2017-04-19T09:56:15.374Z,36.40
2017-04-19T09:57:14.601Z,38.00
2017-04-19T09:58:13.842Z,36.30
2017-04-19T09:59:13.101Z,37.50
2017-04-19T10:00:12.333Z,38.50
2017-04-19T10:01:11.612Z,37.80
2017-04-19T10:02:10.837Z,37.00
2017-04-19T10:03:10.075Z,36.50
2017-04-19T10:04:09.472Z,36.70
2017-04-19T10:05:09.029Z,35.30
2017-04-19T10:06:08.257Z,36.40
2017-04-19T10:07:07.491Z,35.50
2017-04-19T10:08:06.740Z,35.20
2017-04-19T10:09:06.029Z,36.40
2017-04-19T10:10:05.248Z,38.00
2017-04-19T10:11:04.476Z,38.10
2017-04-19T10:12:03.732Z,37.30
2017-04-19T10:13:03.045Z,36.20
2017-04-19T10:14:02.324Z,36.40
2017-04-19T10:15:00.885Z,36.50
2017-04-19T10:16:00.117Z,38.30
2017-04-19T10:16:59.364Z,41.30
2017-04-19T10:17:58.585Z,42.10
2017-04-19T10:18:57.818Z,44.50
2017-04-19T10:19:57.042Z,45.90
2017-04-19T10:20:56.284Z,48.20
2017-04-19T10:21:55.492Z,48.50
2017-04-19T10:22:54.758Z,48.80
2017-04-19T10:23:53.996Z,51.40
2017-04-19T10:24:53.284Z,56.00
2017-04-19T10:25:52.502Z,54.00
2017-04-19T10:26:52.459Z,52.30
2017-04-19T10:27:51.692Z,51.40
2017-04-19T10:28:51.017Z,49.80
2017-04-19T10:29:50.233Z,47.90
2017-04-19T10:30:49.468Z,47.90
2017-04-19T10:31:48.684Z,46.60
2017-04-19T10:32:47.896Z,46.60
2017-04-19T10:33:47.169Z,45.10
2017-04-19T10:34:46.387Z,45.70
2017-04-19T10:35:45.625Z,47.00
2017-04-19T10:36:44.856Z,45.70
2017-04-19T10:37:44.072Z,45.80
2017-04-19T10:38:43.297Z,47.00
2017-04-19T10:39:42.547Z,48.30
2017-04-19T10:40:41.769Z,47.50
2017-04-19T10:41:40.984Z,48.60
2017-04-19T10:42:40.943Z,48.00
2017-04-19T10:43:40.260Z,45.00
2017-04-19T10:44:39.533Z,44.40
2017-04-19T10:45:38.773Z,45.60
2017-04-19T10:46:38.028Z,44.60
2017-04-19T10:47:37.260Z,42.70
2017-04-19T10:48:36.476Z,42.00
2017-04-19T10:49:35.740Z,40.60
2017-04-19T10:50:34.956Z,40.30
2017-04-19T10:51:34.173Z,39.40
2017-04-19T10:52:33.400Z,41.00
2017-04-19T10:53:32.829Z,40.10
2017-04-19T10:54:32.144Z,39.10
2017-04-19T10:55:30.693Z,39.10
2017-04-19T10:56:29.980Z,39.60
2017-04-19T10:57:29.194Z,40.20
2017-04-19T10:58:28.400Z,40.80
2017-04-19T10:59:27.656Z,39.50
2017-04-19T11:00:26.892Z,37.50
2017-04-19T11:01:26.112Z,36.40
2017-04-19T11:02:25.355Z,36.00
2017-04-19T11:03:24.588Z,36.60
2017-04-19T11:04:23.861Z,36.00
2017-04-19T11:05:23.119Z,36.20
2017-04-19T11:06:22.363Z,35.40
2017-04-19T11:07:21.596Z,35.90
2017-04-19T11:08:20.863Z,37.50
2017-04-19T11:09:20.513Z,35.80
2017-04-19T11:10:19.732Z,36.60
2017-04-19T11:11:18.988Z,40.40
2017-04-19T11:12:17.449Z,40.50
2017-04-19T11:13:16.676Z,41.00
2017-04-19T11:14:15.892Z,41.10
2017-04-19T11:15:15.892Z,39.10
2017-04-19T11:16:15.102Z,39.00
2017-04-19T11:17:14.315Z,39.40
2017-04-19T11:18:13.586Z,40.60
2017-04-19T11:19:12.820Z,40.10
2017-04-19T11:20:12.184Z,41.00
2017-04-19T11:21:11.429Z,39.10
2017-04-19T11:22:10.651Z,38.90
2017-04-19T11:23:09.927Z,38.90
2017-04-19T11:24:09.152Z,37.50
2017-04-19T11:25:08.458Z,36.10
2017-04-19T11:26:07.716Z,35.50
2017-04-19T11:27:06.979Z,35.30
2017-04-19T11:28:06.188Z,36.60
2017-04-19T11:29:04.666Z,36.60
2017-04-19T11:30:03.992Z,36.60
2017-04-19T11:31:03.276Z,38.70
2017-04-19T11:32:02.495Z,38.80
2017-04-19T11:33:01.720Z,38.50
2017-04-19T11:34:00.944Z,38.50
2017-04-19T11:35:00.472Z,42.50
2017-04-19T11:35:59.696Z,44.30
2017-04-19T11:36:58.924Z,42.00
2017-04-19T11:37:58.149Z,39.70
2017-04-19T11:38:57.384Z,39.70
2017-04-19T11:39:56.595Z,38.40
2017-04-19T11:40:55.848Z,40.20
2017-04-19T11:41:55.150Z,42.80
2017-04-19T11:42:54.408Z,44.40
2017-04-19T11:43:53.724Z,43.80
2017-04-19T11:44:52.964Z,45.40
2017-04-19T11:45:52.297Z,46.50
2017-04-19T11:46:51.535Z,46.10
2017-04-19T11:47:50.768Z,43.70
2017-04-19T11:48:49.228Z,43.70
2017-04-19T11:49:48.459Z,43.20
2017-04-19T11:50:47.723Z,43.70
2017-04-19T11:51:46.935Z,41.70
2017-04-19T11:52:46.180Z,44.70
2017-04-19T11:53:45.439Z,43.00
2017-04-19T11:54:43.898Z,43.10
2017-04-19T11:55:43.144Z,43.30
2017-04-19T11:56:42.364Z,45.10
2017-04-19T11:57:41.585Z,42.20
2017-04-19T11:58:40.856Z,41.90
2017-04-19T11:59:40.079Z,40.10
2017-04-19T12:00:39.363Z,40.10
2017-04-19T12:01:38.608Z,37.40
2017-04-19T12:02:37.808Z,36.00
2017-04-19T12:03:37.052Z,35.80
2017-04-19T12:04:36.272Z,37.60
2017-04-19T12:05:35.617Z,39.40
2017-04-19T12:06:34.860Z,37.10
2017-04-19T12:07:34.098Z,35.30
2017-04-19T12:08:33.332Z,35.00
2017-04-19T12:09:32.563Z,36.00
2017-04-19T12:10:32.300Z,35.00
2017-04-19T12:11:30.769Z,35.50
2017-04-19T12:12:30.004Z,33.30
2017-04-19T12:13:29.233Z,30.30
2017-04-19T12:14:28.456Z,31.10
2017-04-19T12:15:26.931Z,31.10
2017-04-19T12:16:26.183Z,31.80
2017-04-19T12:17:25.401Z,31.50
2017-04-19T12:18:24.612Z,32.70
2017-04-19T12:19:23.825Z,33.20
2017-04-19T12:20:23.044Z,32.90
2017-04-19T12:21:22.345Z,34.20
2017-04-19T12:22:21.624Z,36.20
2017-04-19T12:23:20.856Z,36.80
2017-04-19T12:24:20.098Z,36.40
2017-04-19T12:25:19.308Z,38.40
2017-04-19T12:26:18.600Z,39.80
2017-04-19T12:27:17.832Z,39.90
2017-04-19T12:28:17.040Z,39.40
2017-04-19T12:29:16.265Z,39.10
2017-04-19T12:30:16.228Z,37.80
2017-04-19T12:31:15.484Z,37.70
2017-04-19T12:32:14.715Z,36.90
2017-04-19T12:33:13.960Z,36.30
2017-04-19T12:34:13.243Z,38.20
2017-04-19T12:35:12.470Z,36.70
2017-04-19T12:36:11.716Z,34.40
2017-04-19T12:37:10.948Z,29.90
2017-04-19T12:38:10.909Z,29.50
2017-04-19T12:39:10.875Z,28.60
2017-04-19T12:40:09.429Z,28.60
2017-04-19T12:41:08.688Z,26.70
2017-04-19T12:42:07.942Z,27.00
2017-04-19T12:43:07.170Z,27.70
2017-04-19T12:44:07.144Z,28.90